createdAt,value
2018-08-06T00:00:14.860Z,19.73
2018-08-06T00:01:17.720Z,19.96
2018-08-06T00:02:23.529Z,19.83
2018-08-06T00:03:26.626Z,19.25
2018-08-06T00:04:30.119Z,18.75
2018-08-06T00:05:33.311Z,18.70
2018-08-06T00:06:36.119Z,18.69
2018-08-06T00:07:40.487Z,18.84
2018-08-06T00:08:43.300Z,19.16
2018-08-06T00:09:46.146Z,19.36
2018-08-06T00:10:48.959Z,19.32
2018-08-06T00:11:53.455Z,19.14
2018-08-06T00:12:56.291Z,19.17
2018-08-06T00:13:59.116Z,19.39
2018-08-06T00:15:01.960Z,19.41
2018-08-06T00:16:05.579Z,19.34
2018-08-06T00:17:08.698Z,19.34
2018-08-06T00:18:11.788Z,19.19
2018-08-06T00:19:14.587Z,18.84
2018-08-06T00:20:17.504Z,18.51
2018-08-06T00:21:20.351Z,18.27
2018-08-06T00:22:23.365Z,18.31
2018-08-06T00:23:26.586Z,18.65
2018-08-06T00:24:30.277Z,19.03
2018-08-06T00:25:33.317Z,19.19
2018-08-06T00:26:36.151Z,19.32
2018-08-06T00:27:39.039Z,19.41
2018-08-06T00:28:41.841Z,19.25
2018-08-06T00:29:44.658Z,19.21
2018-08-06T00:30:47.795Z,19.14
2018-08-06T00:31:50.620Z,19.12
2018-08-06T00:32:53.454Z,19.22
2018-08-06T00:33:56.280Z,19.40
2018-08-06T00:34:59.136Z,19.43
2018-08-06T00:36:01.967Z,19.55
2018-08-06T00:37:05.123Z,19.58
2018-08-06T00:38:07.924Z,19.30
2018-08-06T00:39:12.087Z,19.11
2018-08-06T00:40:15.018Z,18.47
2018-08-06T00:41:17.838Z,18.22
2018-08-06T00:42:20.728Z,18.47
2018-08-06T00:43:23.849Z,18.54
2018-08-06T00:44:26.681Z,18.78
2018-08-06T00:45:29.648Z,18.54
2018-08-06T00:46:32.458Z,18.47
2018-08-06T00:47:35.299Z,18.59
2018-08-06T00:48:38.177Z,18.23
2018-08-06T00:49:41.264Z,17.89
2018-08-06T00:50:44.633Z,17.92
2018-08-06T00:51:47.484Z,18.18
2018-08-06T00:52:51.572Z,18.40
2018-08-06T00:53:54.407Z,18.62
2018-08-06T00:54:57.235Z,18.81
2018-08-06T00:56:00.059Z,18.69
2018-08-06T00:57:03.630Z,18.34
2018-08-06T00:58:06.492Z,17.86
2018-08-06T00:59:09.328Z,17.49
2018-08-06T01:00:13.784Z,17.35
2018-08-06T01:01:17.279Z,17.26
2018-08-06T01:02:20.436Z,17.41
2018-08-06T01:03:23.278Z,17.90
2018-08-06T01:04:26.123Z,18.30
2018-08-06T01:05:28.943Z,18.61
2018-08-06T01:06:31.754Z,18.74
2018-08-06T01:07:34.607Z,18.68
2018-08-06T01:08:37.774Z,18.20
2018-08-06T01:09:40.585Z,17.87
2018-08-06T01:10:43.405Z,17.90
2018-08-06T01:11:46.222Z,17.87
2018-08-06T01:12:49.110Z,17.72
2018-08-06T01:13:51.945Z,17.89
2018-08-06T01:14:56.072Z,18.25
2018-08-06T01:15:59.052Z,18.49
2018-08-06T01:17:02.363Z,18.84
2018-08-06T01:18:05.203Z,18.83
2018-08-06T01:19:08.053Z,18.85
2018-08-06T01:20:10.889Z,18.75
2018-08-06T01:21:13.998Z,18.68
2018-08-06T01:22:16.849Z,18.68
2018-08-06T01:23:19.743Z,18.80
2018-08-06T01:24:22.553Z,18.90
2018-08-06T01:25:25.349Z,18.89
2018-08-06T01:26:28.212Z,18.76
2018-08-06T01:27:31.337Z,18.51
2018-08-06T01:28:34.150Z,18.50
2018-08-06T01:29:36.961Z,18.68
2018-08-06T01:30:39.783Z,18.63
2018-08-06T01:31:42.631Z,18.39
2018-08-06T01:32:45.493Z,18.44
2018-08-06T01:33:48.642Z,18.55
2018-08-06T01:34:51.499Z,18.59
2018-08-06T01:35:54.316Z,18.57
2018-08-06T01:36:57.141Z,18.49
2018-08-06T01:37:59.974Z,18.47
2018-08-06T01:39:03.890Z,18.64
2018-08-06T01:40:07.029Z,18.71
2018-08-06T01:41:09.867Z,18.67
2018-08-06T01:42:12.686Z,18.61
2018-08-06T01:43:15.518Z,18.76
2018-08-06T01:44:18.395Z,18.62
2018-08-06T01:45:21.216Z,18.43
2018-08-06T01:46:24.318Z,18.31
2018-08-06T01:47:27.161Z,18.51
2018-08-06T01:48:29.990Z,18.65
2018-08-06T01:49:32.832Z,18.69
2018-08-06T01:50:35.653Z,18.55
2018-08-06T01:51:38.507Z,18.52
2018-08-06T01:52:43.048Z,18.23
2018-08-06T01:53:45.911Z,18.06
2018-08-06T01:54:48.806Z,17.95
2018-08-06T01:55:51.648Z,17.72
2018-08-06T01:56:55.570Z,17.73
2018-08-06T01:57:58.431Z,17.80
2018-08-06T01:59:01.553Z,17.98
2018-08-06T02:00:06.825Z,18.04
2018-08-06T02:01:09.646Z,18.11
2018-08-06T02:02:12.453Z,18.12
2018-08-06T02:03:15.312Z,18.00
2018-08-06T02:04:18.132Z,18.04
2018-08-06T02:05:21.257Z,18.06
2018-08-06T02:06:24.083Z,18.21
2018-08-06T02:07:26.903Z,18.35
2018-08-06T02:08:29.705Z,18.44
2018-08-06T02:09:32.515Z,18.48
2018-08-06T02:10:35.343Z,18.65
2018-08-06T02:11:38.465Z,18.75
2018-08-06T02:12:41.480Z,18.58
2018-08-06T02:13:44.284Z,18.39
2018-08-06T02:14:47.117Z,18.45
2018-08-06T02:15:49.993Z,18.45
2018-08-06T02:16:52.825Z,18.49
2018-08-06T02:17:55.914Z,18.40
2018-08-06T02:18:58.722Z,18.17
2018-08-06T02:20:01.566Z,18.20
2018-08-06T02:21:04.377Z,18.18
2018-08-06T02:22:07.248Z,18.06
2018-08-06T02:23:10.051Z,18.23
2018-08-06T02:24:13.206Z,18.18
2018-08-06T02:25:16.246Z,18.04
2018-08-06T02:26:19.047Z,17.83
2018-08-06T02:27:23.042Z,17.95
2018-08-06T02:28:25.926Z,17.94
2018-08-06T02:29:28.750Z,17.98
2018-08-06T02:30:31.592Z,18.15
2018-08-06T02:31:34.492Z,18.28
2018-08-06T02:32:38.228Z,18.19
2018-08-06T02:33:41.093Z,18.15
2018-08-06T02:34:43.918Z,17.97
2018-08-06T02:35:46.735Z,17.98
2018-08-06T02:36:50.518Z,17.98
2018-08-06T02:37:53.364Z,18.04
2018-08-06T02:38:56.181Z,18.11
2018-08-06T02:39:59.002Z,18.23
2018-08-06T02:41:01.819Z,18.17
2018-08-06T02:42:04.637Z,18.05
2018-08-06T02:43:08.330Z,17.96
2018-08-06T02:44:12.550Z,17.25
2018-08-06T02:45:15.425Z,17.46
2018-08-06T02:46:18.265Z,17.35
2018-08-06T02:47:21.108Z,17.20
2018-08-06T02:48:23.938Z,17.48
2018-08-06T02:49:27.103Z,17.68
2018-08-06T02:50:29.945Z,17.87
2018-08-06T02:51:32.814Z,17.95
2018-08-06T02:52:35.689Z,17.69
2018-08-06T02:53:38.537Z,17.62
2018-08-06T02:54:41.419Z,17.57
2018-08-06T02:55:44.534Z,17.53
2018-08-06T02:56:47.407Z,17.30
2018-08-06T02:57:50.243Z,17.07
2018-08-06T02:58:53.029Z,17.02
2018-08-06T02:59:56.150Z,16.90
2018-08-06T03:00:58.958Z,16.96
2018-08-06T03:02:02.121Z,16.98
2018-08-06T03:03:04.945Z,17.27
2018-08-06T03:04:07.850Z,17.56
2018-08-06T03:05:11.853Z,17.58
2018-08-06T03:06:14.757Z,17.36
2018-08-06T03:07:17.591Z,17.41
2018-08-06T03:08:20.695Z,17.61
2018-08-06T03:09:23.549Z,17.74
2018-08-06T03:10:26.395Z,17.76
2018-08-06T03:11:29.221Z,17.57
2018-08-06T03:12:32.097Z,17.47
2018-08-06T03:13:34.970Z,17.24
2018-08-06T03:14:38.070Z,16.80
2018-08-06T03:15:40.943Z,16.54
2018-08-06T03:16:43.774Z,16.55
2018-08-06T03:17:46.673Z,16.68
2018-08-06T03:18:49.508Z,16.82
2018-08-06T03:19:52.373Z,16.74
2018-08-06T03:20:55.479Z,16.80
2018-08-06T03:21:58.355Z,16.95
2018-08-06T03:23:01.233Z,17.08
2018-08-06T03:24:04.133Z,17.27
2018-08-06T03:25:07.004Z,17.25
2018-08-06T03:26:10.392Z,16.86
2018-08-06T03:27:13.542Z,16.60
2018-08-06T03:28:16.383Z,16.73
2018-08-06T03:29:19.244Z,16.97
2018-08-06T03:30:22.823Z,17.22
2018-08-06T03:31:25.683Z,17.31
2018-08-06T03:32:28.526Z,17.34
2018-08-06T03:33:31.808Z,17.16
2018-08-06T03:34:34.654Z,17.08
2018-08-06T03:35:37.468Z,17.15
2018-08-06T03:50:28.528Z,16.62
2018-08-06T03:51:31.499Z,16.70
2018-08-06T03:52:34.581Z,16.88
2018-08-06T03:53:37.414Z,17.00
2018-08-06T03:54:40.275Z,16.96
2018-08-06T03:55:43.647Z,17.06
2018-08-06T03:56:46.479Z,17.07
2018-08-06T03:57:49.667Z,17.26
2018-08-06T03:58:53.224Z,17.13
2018-08-06T03:59:56.363Z,17.06
2018-08-06T04:00:59.299Z,17.03
2018-08-06T04:02:02.235Z,17.04
2018-08-06T04:03:05.057Z,17.02
2018-08-06T04:04:07.867Z,16.96
2018-08-06T04:05:12.642Z,16.77
2018-08-06T04:06:15.582Z,16.96
2018-08-06T04:07:18.729Z,16.87
2018-08-06T04:08:21.535Z,16.64
2018-08-06T04:09:24.338Z,16.53
2018-08-06T04:10:27.159Z,16.43
2018-08-06T04:11:30.785Z,16.33
2018-08-06T04:12:33.619Z,16.16
2018-08-06T04:13:36.447Z,16.27
2018-08-06T04:14:39.307Z,16.00
2018-08-06T04:15:42.131Z,16.16
2018-08-06T04:16:45.277Z,16.43
2018-08-06T04:17:48.117Z,16.70
2018-08-06T04:18:51.229Z,16.92
2018-08-06T04:19:54.051Z,17.14
2018-08-06T04:20:56.895Z,17.20
2018-08-06T04:21:59.734Z,17.01
2018-08-06T04:23:02.573Z,16.60
2018-08-06T04:24:05.430Z,16.75
2018-08-06T04:25:08.710Z,16.88
2018-08-06T04:26:11.522Z,16.68
2018-08-06T04:27:14.332Z,16.61
2018-08-06T04:28:17.170Z,16.53
2018-08-06T04:29:19.989Z,16.69
2018-08-06T04:30:22.872Z,16.43
2018-08-06T04:31:26.026Z,16.38
2018-08-06T04:32:28.862Z,16.54
2018-08-06T04:33:31.810Z,16.71
2018-08-06T04:34:34.684Z,16.94
2018-08-06T04:35:37.519Z,16.97
2018-08-06T04:36:40.659Z,16.69
2018-08-06T04:37:44.255Z,16.75
2018-08-06T04:38:47.151Z,17.06
2018-08-06T04:39:50.033Z,17.20
2018-08-06T04:40:52.908Z,17.01
2018-08-06T04:41:55.753Z,16.81
2018-08-06T04:42:58.901Z,16.80
2018-08-06T04:44:01.752Z,16.84
2018-08-06T04:45:04.653Z,17.03
2018-08-06T04:46:07.522Z,17.09
2018-08-06T04:47:10.398Z,17.11
2018-08-06T04:48:13.253Z,17.09
2018-08-06T04:49:16.387Z,17.23
2018-08-06T04:50:19.245Z,17.46
2018-08-06T04:51:22.724Z,17.59
2018-08-06T04:52:25.638Z,17.45
2018-08-06T04:53:28.505Z,17.45
2018-08-06T04:54:31.343Z,17.65
2018-08-06T04:55:34.763Z,17.72
2018-08-06T04:56:37.599Z,17.73
2018-08-06T04:57:42.395Z,17.54
2018-08-06T05:04:16.345Z,17.49
2018-08-06T05:05:20.805Z,17.75
2018-08-06T05:06:23.636Z,17.85
2018-08-06T05:07:27.279Z,17.92
2018-08-06T05:08:31.086Z,17.67
2018-08-06T05:09:33.903Z,17.78
2018-08-06T05:10:38.666Z,17.87
2018-08-06T05:11:41.769Z,17.92
2018-08-06T05:12:45.878Z,18.00
2018-08-06T05:13:48.688Z,18.07
2018-08-06T05:14:52.124Z,17.98
2018-08-06T05:15:54.991Z,17.93
2018-08-06T05:16:59.438Z,17.71
2018-08-06T05:18:03.449Z,17.50
2018-08-06T05:19:06.264Z,17.36
2018-08-06T05:20:09.115Z,17.62
2018-08-06T05:21:11.977Z,17.82
2018-08-06T05:22:14.783Z,17.73
2018-08-06T05:23:18.082Z,17.79
2018-08-06T05:24:20.916Z,17.94
2018-08-06T05:25:23.776Z,18.05
2018-08-06T05:26:27.700Z,18.20
2018-08-06T05:27:30.553Z,18.19
2018-08-06T05:28:33.433Z,18.01
2018-08-06T05:29:36.740Z,18.14
2018-08-06T05:30:39.589Z,18.03
2018-08-06T05:31:42.441Z,18.06
2018-08-06T05:32:45.291Z,18.12
2018-08-06T05:33:48.261Z,18.14
2018-08-06T05:34:51.131Z,18.12
2018-08-06T05:35:54.385Z,18.00
2018-08-06T05:36:57.294Z,17.86
2018-08-06T05:38:00.205Z,17.74
2018-08-06T05:39:03.744Z,17.53
2018-08-06T05:40:09.657Z,17.24
2018-08-06T05:41:12.583Z,17.03
2018-08-06T05:42:15.958Z,17.17
2018-08-06T05:43:18.818Z,17.46
2018-08-06T05:44:22.211Z,17.77
2018-08-06T05:45:26.052Z,17.74
2018-08-06T05:46:28.938Z,17.78
2018-08-06T05:47:31.797Z,17.75
2018-08-06T05:48:35.035Z,17.75
2018-08-06T05:49:37.936Z,17.73
2018-08-06T05:50:41.066Z,17.73
2018-08-06T05:51:44.037Z,17.72
2018-08-06T05:52:47.079Z,18.01
2018-08-06T05:53:50.041Z,18.17
2018-08-06T05:54:54.513Z,18.03
2018-08-06T05:55:57.405Z,18.16
2018-08-06T05:57:00.305Z,18.27
2018-08-06T05:58:04.130Z,17.86
2018-08-06T05:59:06.978Z,17.71
2018-08-06T06:00:09.849Z,17.87
2018-08-06T06:01:12.992Z,17.93
2018-08-06T06:02:15.875Z,18.08
2018-08-06T06:03:18.774Z,18.23
2018-08-06T06:04:21.732Z,18.28
2018-08-06T06:05:24.621Z,18.45
2018-08-06T06:06:27.507Z,18.45
2018-08-06T06:07:31.098Z,18.46
2018-08-06T06:08:33.963Z,18.65
2018-08-06T06:09:36.844Z,18.77
2018-08-06T06:10:39.702Z,18.87
2018-08-06T06:11:42.568Z,19.06
2018-08-06T06:12:45.443Z,19.01
2018-08-06T06:13:48.617Z,19.21
2018-08-06T06:14:51.537Z,19.34
2018-08-06T06:15:54.399Z,19.54
2018-08-06T06:16:58.507Z,19.69
2018-08-06T06:18:05.113Z,19.78
2018-08-06T06:19:09.652Z,19.94
2018-08-06T06:20:13.852Z,19.95
2018-08-06T06:21:16.710Z,20.00
2018-08-06T06:22:19.608Z,20.07
2018-08-06T06:23:22.785Z,20.09
2018-08-06T06:24:25.645Z,20.06
2018-08-06T06:25:28.517Z,20.11
2018-08-06T06:26:31.901Z,20.27
2018-08-06T06:27:34.785Z,20.32
2018-08-06T06:28:37.658Z,20.55
2018-08-06T06:29:40.535Z,20.73
2018-08-06T06:30:44.090Z,20.68
2018-08-06T06:31:46.981Z,20.89
2018-08-06T06:32:50.117Z,20.86
2018-08-06T06:33:53.194Z,20.79
2018-08-06T06:34:56.737Z,20.92
2018-08-06T06:36:00.728Z,21.01
2018-08-06T06:37:04.146Z,20.95
2018-08-06T06:38:07.595Z,21.04
2018-08-06T06:39:13.598Z,21.06
2018-08-06T06:40:16.821Z,21.05
2018-08-06T06:41:19.758Z,21.05
2018-08-06T06:42:22.585Z,21.37
2018-08-06T06:43:25.493Z,21.32
2018-08-06T06:44:28.360Z,21.02
2018-08-06T06:45:32.121Z,21.04
2018-08-06T06:46:34.953Z,21.38
2018-08-06T06:47:38.627Z,21.88
2018-08-06T06:48:41.491Z,22.23
2018-08-06T06:49:44.391Z,22.23
2018-08-06T06:50:47.568Z,22.13
2018-08-06T06:51:51.324Z,21.96
2018-08-06T06:52:54.893Z,21.92
2018-08-06T06:53:57.886Z,22.20
2018-08-06T06:55:00.829Z,22.48
2018-08-06T06:56:03.674Z,22.10
2018-08-06T06:57:07.244Z,22.06
2018-08-06T06:58:11.114Z,22.14
2018-08-06T06:59:15.530Z,22.06
2018-08-06T07:00:18.716Z,22.41
2018-08-06T07:01:23.427Z,22.62
2018-08-06T07:02:26.618Z,22.59
2018-08-06T07:03:29.815Z,22.44
2018-08-06T07:04:32.651Z,22.21
2018-08-06T07:05:35.491Z,22.07
2018-08-06T07:06:41.068Z,22.06
2018-08-06T07:07:43.922Z,22.41
2018-08-06T07:08:46.788Z,22.19
2018-08-06T07:09:50.058Z,22.09
2018-08-06T07:10:53.013Z,22.52
2018-08-06T07:11:55.857Z,22.69
2018-08-06T07:12:59.741Z,22.89
2018-08-06T07:14:02.605Z,23.14
2018-08-06T07:15:05.841Z,23.16
2018-08-06T07:16:09.967Z,23.29
2018-08-06T07:17:12.818Z,22.99
2018-08-06T07:18:15.816Z,22.96
2018-08-06T07:19:18.842Z,23.07
2018-08-06T07:20:22.318Z,23.04
2018-08-06T07:21:25.202Z,23.36
2018-08-06T07:22:28.390Z,23.14
2018-08-06T07:23:31.245Z,23.03
2018-08-06T07:24:35.510Z,23.16
2018-08-06T07:25:41.975Z,23.28
2018-08-06T07:26:44.829Z,22.98
2018-08-06T07:27:47.678Z,23.18
2018-08-06T07:28:51.903Z,23.12
2018-08-06T07:29:55.551Z,23.56
2018-08-06T07:31:00.968Z,23.90
2018-08-06T07:32:04.552Z,23.86
2018-08-06T07:33:07.426Z,23.82
2018-08-06T07:34:10.806Z,23.80
2018-08-06T07:35:14.585Z,23.66
2018-08-06T07:36:17.476Z,24.01
2018-08-06T07:37:21.640Z,24.00
2018-08-06T07:38:24.510Z,23.86
2018-08-06T07:39:28.601Z,23.57
2018-08-06T07:40:31.429Z,23.51
2018-08-06T07:41:34.607Z,23.47
2018-08-06T07:42:37.487Z,23.75
2018-08-06T07:43:41.097Z,24.17
2018-08-06T07:44:44.251Z,24.07
2018-08-06T07:45:47.972Z,23.86
2018-08-06T07:46:52.313Z,23.76
2018-08-06T07:47:56.360Z,23.66
2018-08-06T07:48:59.602Z,23.65
2018-08-06T07:50:02.871Z,23.74
2018-08-06T07:51:06.300Z,23.70
2018-08-06T07:52:09.163Z,23.85
2018-08-06T07:53:12.344Z,23.80
2018-08-06T07:54:15.989Z,24.35
2018-08-06T07:55:19.827Z,24.79
2018-08-06T07:56:22.795Z,24.39
2018-08-06T07:57:25.673Z,24.16
2018-08-06T07:58:29.180Z,24.11
2018-08-06T07:59:32.239Z,24.38
2018-08-06T08:00:35.777Z,24.21
2018-08-06T08:01:38.625Z,24.20
2018-08-06T08:02:41.667Z,24.60
2018-08-06T08:03:44.537Z,24.91
2018-08-06T08:04:47.822Z,25.00
2018-08-06T08:05:50.701Z,24.79
2018-08-06T08:06:53.933Z,24.68
2018-08-06T08:07:56.765Z,24.85
2018-08-06T08:09:01.278Z,24.75
2018-08-06T08:10:05.109Z,24.54
2018-08-06T08:11:07.975Z,24.51
2018-08-06T08:12:10.780Z,24.45
2018-08-06T08:13:14.888Z,24.43
2018-08-06T08:14:17.743Z,24.42
2018-08-06T08:15:21.239Z,24.88
2018-08-06T08:16:24.139Z,24.77
2018-08-06T08:17:26.953Z,24.75
2018-08-06T08:18:29.799Z,24.83
2018-08-06T08:19:34.750Z,25.14
2018-08-06T08:20:37.802Z,25.17
2018-08-06T08:21:41.692Z,24.95
2018-08-06T08:22:45.234Z,24.85
2018-08-06T08:23:48.135Z,24.97
2018-08-06T08:24:51.941Z,25.15
2018-08-06T08:25:55.297Z,25.18
2018-08-06T08:26:58.128Z,25.23
2018-08-06T08:28:00.972Z,25.40
2018-08-06T08:29:04.319Z,25.82
2018-08-06T08:30:07.346Z,25.67
2018-08-06T08:31:14.600Z,25.65
2018-08-06T08:32:18.619Z,25.92
2018-08-06T08:33:21.466Z,25.83
2018-08-06T08:34:24.423Z,25.71
2018-08-06T08:35:27.297Z,26.16
2018-08-06T08:36:30.379Z,26.67
2018-08-06T08:37:34.237Z,27.26
2018-08-06T08:38:39.701Z,27.47
2018-08-06T08:39:42.563Z,26.86
2018-08-06T08:40:45.423Z,27.02
2018-08-06T08:41:48.386Z,26.80
2018-08-06T08:42:51.275Z,26.78
2018-08-06T08:43:55.129Z,26.78
2018-08-06T08:45:01.296Z,26.72
2018-08-06T08:46:05.328Z,27.18
2018-08-06T08:47:08.181Z,27.28
2018-08-06T08:48:11.250Z,27.61
2018-08-06T08:49:14.109Z,27.33
2018-08-06T08:50:17.232Z,26.91
2018-08-06T08:51:20.357Z,26.69
2018-08-06T08:52:23.327Z,26.57
2018-08-06T08:53:26.203Z,27.02
2018-08-06T08:54:29.971Z,27.29
2018-08-06T08:55:36.720Z,27.13
2018-08-06T08:56:39.589Z,26.84
2018-08-06T08:57:42.983Z,26.69
2018-08-06T08:58:45.976Z,27.21
2018-08-06T08:59:48.763Z,27.82
2018-08-06T09:00:52.561Z,27.75
2018-08-06T09:01:55.521Z,26.94
2018-08-06T09:02:59.277Z,27.06
2018-08-06T09:04:02.401Z,27.19
2018-08-06T09:05:09.291Z,27.51
2018-08-06T09:06:12.152Z,27.02
2018-08-06T09:07:15.520Z,26.88
2018-08-06T09:08:18.389Z,26.97
2018-08-06T09:09:21.227Z,27.12
2018-08-06T09:10:24.412Z,26.98
2018-08-06T09:11:27.328Z,27.07
2018-08-06T09:12:30.723Z,27.01
2018-08-06T09:13:34.840Z,26.93
2018-08-06T09:14:37.756Z,26.81
2018-08-06T09:15:40.607Z,26.79
2018-08-06T09:16:44.529Z,26.84
2018-08-06T09:17:47.422Z,26.83
2018-08-06T09:18:53.082Z,27.26
2018-08-06T09:19:55.952Z,27.66
2018-08-06T09:20:58.913Z,27.48
2018-08-06T09:22:01.860Z,27.47
2018-08-06T09:23:05.096Z,27.40
2018-08-06T09:24:07.918Z,27.23
2018-08-06T09:25:11.551Z,27.19
2018-08-06T09:26:14.385Z,27.62
2018-08-06T09:27:17.392Z,28.23
2018-08-06T09:28:20.534Z,28.36
2018-08-06T09:29:23.382Z,28.51
2018-08-06T09:30:26.478Z,28.67
2018-08-06T09:31:31.254Z,28.63
2018-08-06T09:32:34.096Z,28.53
2018-08-06T09:33:36.996Z,28.34
2018-08-06T09:34:41.275Z,28.13
2018-08-06T09:35:44.129Z,28.23
2018-08-06T09:36:51.036Z,27.75
2018-08-06T09:37:54.577Z,27.89
2018-08-06T09:38:57.537Z,27.36
2018-08-06T09:40:00.441Z,27.54
2018-08-06T09:41:03.572Z,27.79
2018-08-06T09:42:06.407Z,27.47
2018-08-06T09:43:11.031Z,27.37
2018-08-06T09:44:14.855Z,27.63
2018-08-06T09:45:20.133Z,28.06
2018-08-06T09:46:24.129Z,28.16
2018-08-06T09:47:29.314Z,28.10
2018-08-06T09:48:32.471Z,27.92
2018-08-06T10:06:01.688Z,29.21
2018-08-06T10:07:04.541Z,28.97
2018-08-06T10:08:07.568Z,29.05
2018-08-06T10:09:11.721Z,29.38
2018-08-06T10:10:19.568Z,29.26
2018-08-06T10:11:22.405Z,29.40
2018-08-06T10:12:25.245Z,29.62
2018-08-06T10:13:28.255Z,29.90
2018-08-06T10:14:33.200Z,29.78
2018-08-06T10:15:37.654Z,28.94
2018-08-06T10:16:40.903Z,28.86
2018-08-06T10:17:44.692Z,29.01
2018-08-06T10:18:47.546Z,29.13
2018-08-06T10:19:50.731Z,29.25
2018-08-06T10:20:54.490Z,29.30
2018-08-06T10:21:57.371Z,29.57
2018-08-06T10:23:01.682Z,29.83
2018-08-06T10:24:05.220Z,29.63
2018-08-06T10:25:09.374Z,28.90
2018-08-06T10:26:12.248Z,28.88
2018-08-06T10:27:15.085Z,28.87
2018-08-06T10:28:17.941Z,29.51
2018-08-06T10:29:21.116Z,29.17
2018-08-06T10:30:24.481Z,29.12
2018-08-06T10:31:27.429Z,29.55
2018-08-06T10:32:30.420Z,29.75
2018-08-06T10:33:34.712Z,29.66
2018-08-06T10:34:37.571Z,30.08
2018-08-06T10:35:40.892Z,30.21
2018-08-06T10:36:44.515Z,30.29
2018-08-06T10:37:52.921Z,30.39
2018-08-06T10:38:55.838Z,30.20
2018-08-06T10:40:00.461Z,30.10
2018-08-06T10:41:03.452Z,30.44
2018-08-06T10:42:06.338Z,30.41
2018-08-06T10:43:09.179Z,29.69
2018-08-06T10:44:12.697Z,29.79
2018-08-06T10:45:17.527Z,29.75
2018-08-06T10:46:21.838Z,29.77
2018-08-06T10:47:25.371Z,30.28
2018-08-06T10:48:28.443Z,29.82
2018-08-06T10:49:31.304Z,30.21
2018-08-06T10:50:35.979Z,30.35
2018-08-06T10:51:39.322Z,30.33
2018-08-06T10:52:42.162Z,30.08
2018-08-06T10:53:45.607Z,29.89
2018-08-06T10:54:48.447Z,29.89
2018-08-06T10:55:51.338Z,29.71
2018-08-06T10:56:54.658Z,29.61
2018-08-06T10:57:58.110Z,29.40
2018-08-06T10:59:01.557Z,28.64
2018-08-06T11:00:04.695Z,28.37
2018-08-06T11:01:08.458Z,28.56
2018-08-06T11:02:11.298Z,28.51
2018-08-06T11:03:15.233Z,28.54
2018-08-06T11:04:19.797Z,28.48
2018-08-06T11:05:25.211Z,28.42
2018-08-06T11:06:29.934Z,28.09
2018-08-06T11:07:32.769Z,28.11
2018-08-06T11:08:36.475Z,28.50
2018-08-06T11:09:40.128Z,29.05
2018-08-06T11:10:43.452Z,29.42
2018-08-06T11:11:46.338Z,29.47
2018-08-06T11:12:49.719Z,29.79
2018-08-06T11:13:52.858Z,30.24
2018-08-06T11:14:55.921Z,29.74
2018-08-06T11:15:58.847Z,29.53
2018-08-06T11:17:01.718Z,29.19
2018-08-06T11:18:05.158Z,29.12
2018-08-06T11:19:08.359Z,29.34
2018-08-06T11:20:12.619Z,29.61
2018-08-06T11:21:15.458Z,29.69
2018-08-06T11:22:18.340Z,30.09
2018-08-06T11:23:23.350Z,30.74
2018-08-06T11:24:27.298Z,30.91
2018-08-06T11:25:33.400Z,30.39
2018-08-06T11:26:36.320Z,29.82
2018-08-06T11:27:40.738Z,29.89
2018-08-06T11:28:44.628Z,29.87
2018-08-06T11:29:49.398Z,29.74
2018-08-06T11:30:52.387Z,29.66
2018-08-06T11:31:56.215Z,29.83
2018-08-06T11:33:00.704Z,30.09
2018-08-06T11:34:04.566Z,30.05
2018-08-06T11:35:08.296Z,30.27
2018-08-06T11:36:11.156Z,29.79
2018-08-06T11:37:14.123Z,29.77
2018-08-06T11:38:17.277Z,30.05
2018-08-06T11:39:20.139Z,30.02
2018-08-06T11:40:23.275Z,30.11
2018-08-06T11:41:26.090Z,30.31
2018-08-06T11:42:29.618Z,30.29
2018-08-06T11:43:33.339Z,30.39
2018-08-06T11:44:37.290Z,30.51
2018-08-06T11:45:40.316Z,30.72
2018-08-06T11:46:43.177Z,30.67
2018-08-06T11:47:47.566Z,30.58
2018-08-06T11:48:53.612Z,30.49
2018-08-06T11:49:58.448Z,30.32
2018-08-06T11:51:01.592Z,30.45
2018-08-06T11:52:05.334Z,30.99
2018-08-06T11:53:08.491Z,31.58
2018-08-06T11:54:12.335Z,31.40
2018-08-06T11:55:15.821Z,31.09
2018-08-06T11:56:18.740Z,31.11
2018-08-06T11:57:21.900Z,31.05
2018-08-06T11:58:24.722Z,30.75
2018-08-06T11:59:28.529Z,30.56
2018-08-06T12:00:32.624Z,30.49
2018-08-06T12:01:39.389Z,30.58
2018-08-06T12:02:43.324Z,30.59
2018-08-06T12:03:46.460Z,30.90
2018-08-06T12:04:49.461Z,31.32
2018-08-06T12:05:53.266Z,31.57
2018-08-06T12:06:57.679Z,31.13
2018-08-06T12:08:00.928Z,30.85
2018-08-06T12:09:07.239Z,30.63
2018-08-06T12:10:10.547Z,30.67
2018-08-06T12:11:14.315Z,30.88
2018-08-06T12:12:17.232Z,30.86
2018-08-06T12:13:20.123Z,30.24
2018-08-06T12:14:23.076Z,30.62
2018-08-06T12:15:26.589Z,31.11
2018-08-06T12:16:29.719Z,31.05
2018-08-06T12:17:33.545Z,31.16
2018-08-06T12:18:36.718Z,31.46
2018-08-06T12:19:39.585Z,31.73
2018-08-06T12:20:43.946Z,31.97
2018-08-06T12:21:47.789Z,31.95
2018-08-06T12:22:52.314Z,31.32
2018-08-06T12:23:56.235Z,30.88
2018-08-06T12:24:59.918Z,30.87
2018-08-06T12:26:03.518Z,30.78
2018-08-06T12:27:06.296Z,30.85
2018-08-06T12:28:09.702Z,30.43
2018-08-06T12:29:12.791Z,30.90
2018-08-06T12:30:16.757Z,31.15
2018-08-06T12:31:19.848Z,31.11
2018-08-06T12:32:24.257Z,31.12
2018-08-06T12:33:27.789Z,30.70
2018-08-06T12:34:30.670Z,30.74
2018-08-06T12:35:33.755Z,30.67
2018-08-06T12:36:37.741Z,30.83
2018-08-06T12:37:40.591Z,31.02
2018-08-06T12:38:43.450Z,30.77
2018-08-06T12:39:46.650Z,30.91
2018-08-06T12:40:49.602Z,31.02
2018-08-06T12:41:52.793Z,31.06
2018-08-06T12:42:55.664Z,31.08
2018-08-06T12:43:58.625Z,31.13
2018-08-06T12:45:01.504Z,31.51
2018-08-06T12:46:04.718Z,31.32
2018-08-06T12:47:07.665Z,31.29
2018-08-06T12:48:10.538Z,31.61
2018-08-06T12:49:13.396Z,31.53
2018-08-06T12:50:17.268Z,31.86
2018-08-06T12:51:20.111Z,31.90
2018-08-06T12:52:23.477Z,31.50
2018-08-06T12:53:27.337Z,31.28
2018-08-06T12:54:31.290Z,31.29
2018-08-06T12:55:35.169Z,31.04
2018-08-06T12:56:40.610Z,31.56
2018-08-06T12:57:44.108Z,32.06
2018-08-06T12:58:47.307Z,31.87
2018-08-06T12:59:51.025Z,31.23
2018-08-06T13:00:54.598Z,31.29
2018-08-06T13:01:59.423Z,32.07
2018-08-06T13:03:02.263Z,32.72
2018-08-06T13:04:05.119Z,32.95
2018-08-06T13:05:09.708Z,33.23
2018-08-06T13:06:14.415Z,33.38
2018-08-06T13:07:17.364Z,32.82
2018-08-06T13:08:21.849Z,32.64
2018-08-06T13:09:25.627Z,32.68
2018-08-06T13:10:28.573Z,32.17
2018-08-06T13:11:31.792Z,32.09
2018-08-06T13:12:34.985Z,31.28
2018-08-06T13:13:41.025Z,30.76
2018-08-06T13:14:43.896Z,30.92
2018-08-06T13:15:46.747Z,31.05
2018-08-06T13:16:50.723Z,31.36
2018-08-06T13:17:54.515Z,31.78
2018-08-06T13:18:58.634Z,31.65
2018-08-06T13:20:03.366Z,31.45
2018-08-06T13:21:06.503Z,31.55
2018-08-06T13:22:10.325Z,31.38
2018-08-06T13:23:14.500Z,31.20
2018-08-06T13:24:18.882Z,31.57
2018-08-06T13:25:21.788Z,31.86
2018-08-06T13:26:25.529Z,31.57
2018-08-06T13:27:31.171Z,31.80
2018-08-06T13:28:36.736Z,31.77
2018-08-06T13:29:40.780Z,31.84
2018-08-06T13:30:44.987Z,31.73
2018-08-06T13:31:50.733Z,31.77
2018-08-06T13:32:53.594Z,31.87
2018-08-06T13:34:01.588Z,32.06
2018-08-06T13:35:04.472Z,31.83
2018-08-06T13:36:07.312Z,31.98
2018-08-06T13:37:10.495Z,31.77
2018-08-06T13:38:13.360Z,31.91
2018-08-06T13:39:18.672Z,32.35
2018-08-06T13:40:22.369Z,32.40
2018-08-06T13:41:25.337Z,32.67
2018-08-06T13:42:28.824Z,33.53
2018-08-06T13:43:33.732Z,32.99
2018-08-06T13:44:37.510Z,32.49
2018-08-06T13:45:41.576Z,32.85
2018-08-06T13:46:45.093Z,33.06
2018-08-06T13:47:48.788Z,33.47
2018-08-06T13:48:51.966Z,33.45
2018-08-06T13:49:56.865Z,33.47
2018-08-06T13:51:00.537Z,33.42
2018-08-06T13:52:03.365Z,33.89
2018-08-06T13:53:06.642Z,34.27
2018-08-06T13:54:11.578Z,34.62
2018-08-06T13:55:14.780Z,34.23
2018-08-06T13:56:18.089Z,34.21
2018-08-06T13:57:21.929Z,34.09
2018-08-06T13:58:25.656Z,34.12
2018-08-06T13:59:28.751Z,34.55
2018-08-06T14:00:31.590Z,34.23
2018-08-06T14:01:35.354Z,33.50
2018-08-06T14:02:38.717Z,32.86
2018-08-06T14:03:46.269Z,33.07
2018-08-06T14:04:49.193Z,33.27
2018-08-06T14:05:52.052Z,32.85
2018-08-06T14:06:55.008Z,32.73
2018-08-06T14:07:57.931Z,32.94
2018-08-06T14:09:01.111Z,32.96
2018-08-06T14:10:04.714Z,33.43
2018-08-06T14:11:07.730Z,33.48